Time;durP1;ratioP1;P1;durP2;ratioP2;P2;SDS_P1;SDS_P2;PMS_P1;PMS_P2;Temp;Humidity;BMP_temperature;BMP_pressure;BME280_temperature;BME280_humidity;BME280_pressure;Samples;Min_cycle;Max_cycle;Signal;HPM_P1;HPM_P2
2022/06/03 00:00:20;;;;;;;1.40;1.30;;;;;;;;;;5074688;28;20234;-71
2022/06/03 00:02:57;;;;;;;1.20;1.17;;;;;;;;;;5077803;28;20262;-71
2022/06/03 00:05:37;;;;;;;1.27;1.17;;;;;;;;;;5075853;28;20670;-71
2022/06/03 00:08:06;;;;;;;1.40;1.30;;;;;;;;;;5077131;28;20602;-71
2022/06/03 00:10:51;;;;;;;1.50;1.40;;;;;;;;;;5075303;28;20621;-71
2022/06/03 00:13:37;;;;;;;2.33;1.40;;;;;;;;;;5072762;28;20227;-71
2022/06/03 00:16:09;;;;;;;1.43;1.23;;;;;;;;;;5075619;28;20708;-71
2022/06/03 00:18:36;;;;;;;3.03;1.40;;;;;;;;;;5075022;28;20213;-71
2022/06/03 00:21:07;;;;;;;1.30;1.20;;;;;;;;;;5073662;28;20173;-71
2022/06/03 00:23:49;;;;;;;1.77;1.33;;;;;;;;;;5075956;28;20551;-71
2022/06/03 00:26:28;;;;;;;1.60;1.40;;;;;;;;;;5069436;28;20216;-71
2022/06/03 00:29:12;;;;;;;1.53;1.20;;;;;;;;;;5074064;28;20301;-71
2022/06/03 00:31:56;;;;;;;3.33;1.50;;;;;;;;;;5071840;28;20209;-71
2022/06/03 00:34:45;;;;;;;1.57;1.40;;;;;;;;;;5073233;28;20212;-71
2022/06/03 00:37:30;;;;;;;1.93;1.47;;;;;;;;;;5064657;28;20299;-70
2022/06/03 00:39:56;;;;;;;2.63;1.33;;;;;;;;;;5073529;28;20618;-71
2022/06/03 00:42:34;;;;;;;1.40;1.27;;;;;;;;;;5071817;28;20254;-71
2022/06/03 00:45:05;;;;;;;1.43;1.20;;;;;;;;;;5073675;28;20236;-71
2022/06/03 00:47:31;;;;;;;1.80;1.30;;;;;;;;;;5073629;28;20718;-71
2022/06/03 00:50:10;;;;;;;3.63;1.30;;;;;;;;;;5073669;28;20187;-71
2022/06/03 00:53:04;;;;;;;2.10;1.17;;;;;;;;;;5075638;28;20203;-71
2022/06/03 00:55:37;;;;;;;2.80;1.20;;;;;;;;;;5076894;28;20232;-71
2022/06/03 00:58:13;;;;;;;1.60;1.27;;;;;;;;;;5078544;28;20178;-71
2022/06/03 01:01:01;;;;;;;1.40;1.10;;;;;;;;;;5074347;28;20803;-71
2022/06/03 01:03:41;;;;;;;2.13;1.20;;;;;;;;;;5077653;28;20205;-71
2022/06/03 01:06:14;;;;;;;1.83;1.30;;;;;;;;;;5078798;28;20189;-71
2022/06/03 01:08:43;;;;;;;2.50;1.30;;;;;;;;;;5082453;28;20189;-71
2022/06/03 01:11:28;;;;;;;2.20;1.70;;;;;;;;;;5077383;28;20229;-70
2022/06/03 01:14:06;;;;;;;2.00;1.60;;;;;;;;;;5079252;28;20677;-70
2022/06/03 01:16:45;;;;;;;2.73;1.57;;;;;;;;;;5079001;28;20188;-70
2022/06/03 01:19:30;;;;;;;2.33;1.70;;;;;;;;;;5074762;28;20195;-70
2022/06/03 01:22:04;;;;;;;1.50;1.40;;;;;;;;;;5076858;28;20180;-70
2022/06/03 01:24:56;;;;;;;1.70;1.60;;;;;;;;;;5078175;28;20199;-70
2022/06/03 01:27:32;;;;;;;1.67;1.50;;;;;;;;;;5078063;28;20568;-70
2022/06/03 01:30:19;;;;;;;2.10;1.90;;;;;;;;;;5077149;28;20737;-70
2022/06/03 01:32:59;;;;;;;2.35;1.90;;;;;;;;;;5071219;28;20444;-70
2022/06/03 01:35:25;;;;;;;1.93;1.60;;;;;;;;;;5076857;28;20572;-70
2022/06/03 01:38:04;;;;;;;3.10;1.90;;;;;;;;;;5072970;28;20182;-70
2022/06/03 01:40:30;;;;;;;2.97;1.90;;;;;;;;;;5077999;28;20263;-70
2022/06/03 01:43:08;;;;;;;2.00;1.80;;;;;;;;;;5079137;28;20185;-70
2022/06/03 01:45:44;;;;;;;1.90;1.80;;;;;;;;;;5080953;28;20711;-70
2022/06/03 01:48:10;;;;;;;7.30;2.03;;;;;;;;;;5079305;28;20192;-70
2022/06/03 01:50:48;;;;;;;2.20;1.67;;;;;;;;;;5078162;28;20200;-70
2022/06/03 01:53:33;;;;;;;2.53;1.90;;;;;;;;;;5073742;28;20619;-70
2022/06/03 01:56:00;;;;;;;2.23;1.60;;;;;;;;;;5081845;28;20239;-70
2022/06/03 01:58:38;;;;;;;1.80;1.70;;;;;;;;;;5076007;28;20180;-70
2022/06/03 02:01:23;;;;;;;1.60;1.50;;;;;;;;;;5072227;28;20215;-70
2022/06/03 02:03:58;;;;;;;2.10;1.70;;;;;;;;;;5075231;28;20207;-70
2022/06/03 02:06:43;;;;;;;1.97;1.77;;;;;;;;;;5075777;28;20275;-70
2022/06/03 02:09:15;;;;;;;4.33;1.73;;;;;;;;;;5074547;28;20204;-70
2022/06/03 02:11:59;;;;;;;2.10;1.80;;;;;;;;;;5073496;28;20204;-70
2022/06/03 02:14:44;;;;;;;5.17;2.00;;;;;;;;;;5072011;28;20219;-70
2022/06/03 02:17:33;;;;;;;3.27;1.83;;;;;;;;;;5075522;28;20185;-70
2022/06/03 02:20:18;;;;;;;3.67;2.10;;;;;;;;;;5051335;28;20193;-70
2022/06/03 02:22:54;;;;;;;2.17;1.97;;;;;;;;;;5065470;28;20194;-70
2022/06/03 02:25:27;;;;;;;2.00;1.90;;;;;;;;;;5069497;28;20228;-70
2022/06/03 02:28:10;;;;;;;1.80;1.70;;;;;;;;;;5056271;28;20227;-70
2022/06/03 02:30:56;;;;;;;2.67;2.07;;;;;;;;;;5071465;28;20196;-70
2022/06/03 02:33:22;;;;;;;2.07;1.87;;;;;;;;;;5071360;28;20389;-70
2022/06/03 02:35:49;;;;;;;2.27;1.93;;;;;;;;;;5052456;28;20220;-70
2022/06/03 02:38:34;;;;;;;2.20;2.00;;;;;;;;;;5071927;28;20264;-70
2022/06/03 02:41:10;;;;;;;2.73;2.07;;;;;;;;;;5065036;28;20181;-70
2022/06/03 02:43:36;;;;;;;2.90;2.00;;;;;;;;;;5075450;28;20209;-70
2022/06/03 02:46:06;;;;;;;2.57;2.00;;;;;;;;;;5071726;28;20233;-71
2022/06/03 02:48:36;;;;;;;2.23;1.80;;;;;;;;;;5066243;28;20594;-70
2022/06/03 02:51:14;;;;;;;2.27;1.87;;;;;;;;;;5069578;28;20192;-70
2022/06/03 02:53:43;;;;;;;2.10;1.90;;;;;;;;;;5065142;28;20201;-70
2022/06/03 02:56:17;;;;;;;2.07;1.87;;;;;;;;;;5072851;28;20213;-70
2022/06/03 02:58:43;;;;;;;2.33;2.00;;;;;;;;;;5067647;28;20219;-70
2022/06/03 03:01:22;;;;;;;3.33;2.20;;;;;;;;;;5064502;28;20230;-70
2022/06/03 03:03:51;;;;;;;2.30;1.90;;;;;;;;;;5067386;28;20228;-70
2022/06/03 03:06:24;;;;;;;2.40;2.03;;;;;;;;;;5065794;28;20347;-70
2022/06/03 03:09:16;;;;;;;2.10;2.00;;;;;;;;;;5068320;28;20208;-70
2022/06/03 03:11:54;;;;;;;2.23;2.00;;;;;;;;;;5068365;28;20216;-70
2022/06/03 03:14:42;;;;;;;2.73;2.40;;;;;;;;;;5070607;28;20216;-70
2022/06/03 03:17:19;;;;;;;3.40;1.97;;;;;;;;;;5075421;28;20176;-70
2022/06/03 03:20:04;;;;;;;3.90;2.27;;;;;;;;;;5076223;28;20185;-70
2022/06/03 03:22:33;;;;;;;3.43;2.20;;;;;;;;;;5075785;28;20169;-70
2022/06/03 03:25:08;;;;;;;3.50;2.30;;;;;;;;;;5073566;28;20237;-70
2022/06/03 03:28:00;;;;;;;2.77;1.90;;;;;;;;;;5071013;28;20185;-70
2022/06/03 03:30:27;;;;;;;2.50;1.97;;;;;;;;;;5069624;28;20263;-70
2022/06/03 03:33:02;;;;;;;2.50;2.30;;;;;;;;;;5073617;28;20231;-70
2022/06/03 03:35:48;;;;;;;3.57;2.30;;;;;;;;;;5072021;28;20216;-70
2022/06/03 03:38:14;;;;;;;3.53;2.23;;;;;;;;;;5068339;28;20185;-70
2022/06/03 03:40:53;;;;;;;2.20;2.00;;;;;;;;;;5072114;28;20197;-70
2022/06/03 03:43:38;;;;;;;2.53;2.17;;;;;;;;;;5066548;28;20200;-70
2022/06/03 03:46:21;;;;;;;2.40;2.20;;;;;;;;;;5074131;28;20187;-70
2022/06/03 03:48:47;;;;;;;2.67;2.10;;;;;;;;;;5067924;28;20284;-70
2022/06/03 03:51:33;;;;;;;2.53;2.27;;;;;;;;;;5073949;28;20214;-70
2022/06/03 03:54:26;;;;;;;2.80;2.50;;;;;;;;;;5070946;28;20211;-70
2022/06/03 03:56:58;;;;;;;2.53;2.27;;;;;;;;;;5069761;28;20193;-70
2022/06/03 03:59:33;;;;;;;3.13;2.13;;;;;;;;;;5071779;28;20315;-70
2022/06/03 04:02:18;;;;;;;2.50;2.30;;;;;;;;;;5068596;28;20253;-70
2022/06/03 04:05:01;;;;;;;2.23;2.00;;;;;;;;;;5075347;28;20223;-70
2022/06/03 04:07:43;;;;;;;2.20;2.00;;;;;;;;;;5072566;28;20189;-70
2022/06/03 04:10:09;;;;;;;2.10;1.90;;;;;;;;;;5067959;28;20192;-70
2022/06/03 04:12:45;;;;;;;3.20;2.20;;;;;;;;;;5054804;28;20207;-71
2022/06/03 04:15:30;;;;;;;2.93;2.30;;;;;;;;;;5073048;28;20223;-70
2022/06/03 04:18:18;;;;;;;2.40;1.90;;;;;;;;;;5071281;28;20679;-70
2022/06/03 04:20:53;;;;;;;2.20;2.00;;;;;;;;;;5066531;28;20207;-70
2022/06/03 04:23:32;;;;;;;2.67;2.47;;;;;;;;;;5066203;28;20201;-70
2022/06/03 04:26:14;;;;;;;4.20;2.10;;;;;;;;;;5074459;28;20185;-71
2022/06/03 04:28:46;;;;;;;3.10;2.40;;;;;;;;;;5073723;28;20176;-70
2022/06/03 04:31:25;;;;;;;3.07;2.20;;;;;;;;;;5072162;28;20196;-70
2022/06/03 04:33:54;;;;;;;2.33;2.10;;;;;;;;;;5076695;28;20220;-71
2022/06/03 04:36:29;;;;;;;2.50;2.27;;;;;;;;;;5060219;28;20673;-71
2022/06/03 04:39:14;;;;;;;3.93;2.10;;;;;;;;;;5061964;28;20267;-70
2022/06/03 04:41:59;;;;;;;2.50;2.00;;;;;;;;;;5080528;28;20208;-71
2022/06/03 04:44:40;;;;;;;3.13;2.40;;;;;;;;;;5077269;28;20201;-71
2022/06/03 04:47:19;;;;;;;3.00;2.30;;;;;;;;;;5074930;28;20188;-70
2022/06/03 04:50:03;;;;;;;3.23;2.20;;;;;;;;;;5072038;28;20183;-74
2022/06/03 04:53:05;;;;;;;2.77;2.20;;;;;;;;;;5075480;28;20204;-72
2022/06/03 04:55:37;;;;;;;3.03;2.33;;;;;;;;;;5049601;28;20350;-71
2022/06/03 04:58:22;;;;;;;4.60;1.90;;;;;;;;;;5071491;28;20204;-71
2022/06/03 05:00:51;;;;;;;3.40;2.30;;;;;;;;;;5069580;28;20177;-71
2022/06/03 05:03:25;;;;;;;2.20;2.00;;;;;;;;;;5076809;28;20197;-72
2022/06/03 05:06:11;;;;;;;2.90;2.23;;;;;;;;;;5074715;28;20708;-71
2022/06/03 05:08:56;;;;;;;4.60;2.00;;;;;;;;;;5072425;28;20665;-73
2022/06/03 05:11:22;;;;;;;2.00;1.90;;;;;;;;;;5054407;28;20189;-70
2022/06/03 05:13:49;;;;;;;2.83;2.00;;;;;;;;;;5076691;28;20202;-71
2022/06/03 05:16:25;;;;;;;2.80;2.20;;;;;;;;;;5078165;28;20204;-70
2022/06/03 05:18:51;;;;;;;3.23;2.10;;;;;;;;;;5079357;28;20177;-70
2022/06/03 05:21:36;;;;;;;2.03;1.83;;;;;;;;;;5075834;28;20226;-70
2022/06/03 05:24:17;;;;;;;2.27;1.90;;;;;;;;;;5075221;28;20197;-72
2022/06/03 05:27:02;;;;;;;2.60;2.00;;;;;;;;;;5075573;28;21935;-70
2022/06/03 05:29:40;;;;;;;2.30;2.10;;;;;;;;;;5072644;28;20227;-72
2022/06/03 05:32:39;;;;;;;2.27;2.07;;;;;;;;;;5070944;28;20200;-71
2022/06/03 05:35:13;;;;;;;2.93;2.30;;;;;;;;;;5063143;28;20229;-73
2022/06/03 05:37:48;;;;;;;2.63;2.27;;;;;;;;;;5073318;28;20247;-75
2022/06/03 05:40:21;;;;;;;2.90;2.30;;;;;;;;;;5080829;28;20180;-73
2022/06/03 05:42:53;;;;;;;2.40;2.20;;;;;;;;;;5066402;28;20201;-72
2022/06/03 05:45:38;;;;;;;2.73;2.27;;;;;;;;;;5076532;28;20692;-72
2022/06/03 05:48:09;;;;;;;3.07;2.03;;;;;;;;;;5070107;28;20185;-72
2022/06/03 05:50:38;;;;;;;2.70;1.70;;;;;;;;;;5063788;28;21076;-73
2022/06/03 05:53:29;;;;;;;2.83;2.07;;;;;;;;;;5045440;28;20193;-71
2022/06/03 05:56:05;;;;;;;2.40;2.20;;;;;;;;;;5061373;28;20221;-72
2022/06/03 05:58:45;;;;;;;2.47;2.20;;;;;;;;;;5061804;28;20264;-72
2022/06/03 06:01:17;;;;;;;2.80;2.20;;;;;;;;;;5059456;28;20522;-72
2022/06/03 06:03:43;;;;;;;3.13;2.10;;;;;;;;;;5041232;28;20737;-71
2022/06/03 06:06:12;;;;;;;2.10;1.90;;;;;;;;;;5061792;28;20182;-71
2022/06/03 06:08:53;;;;;;;2.57;2.33;;;;;;;;;;5049690;28;20574;-71
2022/06/03 06:11:38;;;;;;;2.60;2.40;;;;;;;;;;5058424;28;20193;-71
2022/06/03 06:14:07;;;;;;;5.27;2.43;;;;;;;;;;5059616;28;20250;-72
2022/06/03 06:16:40;;;;;;;2.40;2.20;;;;;;;;;;5064084;28;20196;-72
2022/06/03 06:19:19;;;;;;;2.53;2.07;;;;;;;;;;5059835;28;20182;-72
2022/06/03 06:22:09;;;;;;;2.83;2.13;;;;;;;;;;5055851;28;20216;-72
2022/06/03 06:24:35;;;;;;;2.37;2.17;;;;;;;;;;5056855;28;20282;-71
2022/06/03 06:27:16;;;;;;;2.60;1.90;;;;;;;;;;5058013;28;20563;-71
2022/06/03 06:30:05;;;;;;;2.77;1.90;;;;;;;;;;5056491;28;20239;-72
2022/06/03 06:32:35;;;;;;;2.00;1.77;;;;;;;;;;5042533;28;20230;-72
2022/06/03 06:35:22;;;;;;;2.57;2.10;;;;;;;;;;5060936;28;20229;-71
2022/06/03 06:37:48;;;;;;;2.77;2.10;;;;;;;;;;5058040;28;20544;-71
2022/06/03 06:40:26;;;;;;;2.10;1.90;;;;;;;;;;5056089;28;20234;-71
2022/06/03 06:43:18;;;;;;;2.23;2.00;;;;;;;;;;5058579;28;20267;-72
2022/06/03 06:45:52;;;;;;;4.00;2.20;;;;;;;;;;5062424;28;20243;-72
2022/06/03 06:48:37;;;;;;;5.70;2.50;;;;;;;;;;5055373;28;20189;-72
2022/06/03 06:51:12;;;;;;;3.70;2.43;;;;;;;;;;5065907;28;20708;-72
2022/06/03 06:53:59;;;;;;;2.53;2.27;;;;;;;;;;5073236;28;20216;-72
2022/06/03 06:56:32;;;;;;;6.00;2.43;;;;;;;;;;5064858;28;20580;-72
2022/06/03 06:59:02;;;;;;;4.63;2.27;;;;;;;;;;5065176;28;20185;-71
2022/06/03 07:01:55;;;;;;;3.50;2.30;;;;;;;;;;5063887;28;20182;-71
2022/06/03 07:04:24;;;;;;;4.93;2.30;;;;;;;;;;5065035;28;20206;-71
2022/06/03 07:06:54;;;;;;;5.07;2.47;;;;;;;;;;5067038;28;20193;-72
2022/06/03 07:09:32;;;;;;;4.97;2.17;;;;;;;;;;5064777;28;20192;-73
2022/06/03 07:12:18;;;;;;;2.77;2.33;;;;;;;;;;5066526;28;20534;-72
2022/06/03 07:15:20;;;;;;;2.67;2.10;;;;;;;;;;5065307;28;20533;-72
2022/06/03 07:21:17;;;;;;;5.03;2.00;;;;;;;;;;5035023;28;20189;-74
2022/06/03 07:23:50;;;;;;;2.77;1.90;;;;;;;;;;5064678;28;20685;-73
2022/06/03 07:26:19;;;;;;;2.43;2.23;;;;;;;;;;5063303;28;20193;-71
2022/06/03 07:28:51;;;;;;;2.23;2.03;;;;;;;;;;5067840;28;22133;-70
2022/06/03 07:31:31;;;;;;;2.97;2.27;;;;;;;;;;5062009;28;20196;-70
2022/06/03 07:33:57;;;;;;;4.20;1.87;;;;;;;;;;5062605;28;20212;-71
2022/06/03 07:36:42;;;;;;;3.63;2.10;;;;;;;;;;5062623;28;20300;-76
2022/06/03 07:39:19;;;;;;;3.13;2.10;;;;;;;;;;5063284;28;20178;-76
2022/06/03 07:41:52;;;;;;;2.70;2.33;;;;;;;;;;5064496;28;20300;-76
2022/06/03 07:44:24;;;;;;;2.63;1.90;;;;;;;;;;5060358;28;20197;-77
2022/06/03 07:47:01;;;;;;;2.57;2.20;;;;;;;;;;5046841;28;20182;-77
2022/06/03 07:49:29;;;;;;;1.90;1.80;;;;;;;;;;5064360;28;20201;-72
2022/06/03 07:52:00;;;;;;;2.77;2.30;;;;;;;;;;5067131;28;20181;-72
2022/06/03 07:54:28;;;;;;;5.80;2.10;;;;;;;;;;5069999;28;20201;-72
2022/06/03 07:57:21;;;;;;;4.23;2.27;;;;;;;;;;5057850;28;20728;-72
2022/06/03 07:59:47;;;;;;;3.37;1.97;;;;;;;;;;5049226;28;20349;-72
2022/06/03 08:02:15;;;;;;;7.17;2.07;;;;;;;;;;5055101;28;20265;-72
2022/06/03 08:04:42;;;;;;;3.30;2.10;;;;;;;;;;5068986;28;20288;-72
2022/06/03 08:12:55;;;;;;;2.30;2.10;;;;;;;;;;5055400;28;20255;-72
2022/06/03 08:15:23;;;;;;;2.57;2.30;;;;;;;;;;5058400;28;20211;-72
2022/06/03 08:17:50;;;;;;;4.13;2.17;;;;;;;;;;5065148;28;20185;-72
2022/06/03 08:20:18;;;;;;;3.67;2.20;;;;;;;;;;5069443;28;20193;-72
2022/06/03 08:22:45;;;;;;;2.67;2.47;;;;;;;;;;5056333;28;20181;-73
2022/06/03 08:25:14;;;;;;;3.17;2.60;;;;;;;;;;5071137;28;20209;-72
2022/06/03 08:27:40;;;;;;;2.40;2.20;;;;;;;;;;5052041;28;20212;-72
2022/06/03 08:30:07;;;;;;;3.23;2.33;;;;;;;;;;5054558;28;20577;-73
2022/06/03 08:32:35;;;;;;;2.40;2.10;;;;;;;;;;5057340;28;20276;-73
2022/06/03 08:35:07;;;;;;;2.60;2.10;;;;;;;;;;5065640;28;20304;-72
2022/06/03 08:37:34;;;;;;;2.40;2.20;;;;;;;;;;5070839;28;20642;-73
2022/06/03 08:40:02;;;;;;;5.30;2.40;;;;;;;;;;5068080;28;20181;-72
2022/06/03 08:42:49;;;;;;;2.63;2.43;;;;;;;;;;5054206;28;20177;-73
2022/06/03 08:45:25;;;;;;;3.70;2.60;;;;;;;;;;5074645;28;20741;-74
2022/06/03 08:47:58;;;;;;;3.83;2.50;;;;;;;;;;5070949;28;20191;-73
2022/06/03 08:50:34;;;;;;;5.33;2.60;;;;;;;;;;5079008;28;20303;-72
2022/06/03 08:53:07;;;;;;;3.53;2.27;;;;;;;;;;5073103;28;20200;-72
2022/06/03 08:55:43;;;;;;;2.47;2.27;;;;;;;;;;5074154;28;20674;-73
2022/06/03 08:58:32;;;;;;;2.60;2.40;;;;;;;;;;5064604;28;20189;-72
2022/06/03 09:01:02;;;;;;;5.20;2.73;;;;;;;;;;5066409;28;20189;-71
2022/06/03 09:03:30;;;;;;;2.93;2.60;;;;;;;;;;5064349;28;20204;-71
2022/06/03 09:06:07;;;;;;;4.03;2.30;;;;;;;;;;5067448;28;20185;-72
2022/06/03 09:08:33;;;;;;;3.63;2.50;;;;;;;;;;5067018;28;20192;-71
2022/06/03 09:11:05;;;;;;;2.77;2.57;;;;;;;;;;5039448;28;20193;-72
2022/06/03 09:13:42;;;;;;;5.33;2.60;;;;;;;;;;5068639;28;20327;-72
2022/06/03 09:16:10;;;;;;;2.60;2.40;;;;;;;;;;5073414;28;20219;-72
2022/06/03 09:18:41;;;;;;;2.70;2.40;;;;;;;;;;5073220;28;20627;-71
2022/06/03 09:21:10;;;;;;;3.10;2.60;;;;;;;;;;5072373;28;20557;-71
2022/06/03 09:23:39;;;;;;;4.73;2.40;;;;;;;;;;5055892;28;20205;-72
2022/06/03 09:26:05;;;;;;;2.60;2.40;;;;;;;;;;5067712;28;20192;-72
2022/06/03 09:28:33;;;;;;;4.33;2.40;;;;;;;;;;5055004;28;20193;-71
2022/06/03 09:31:01;;;;;;;2.40;2.20;;;;;;;;;;5072623;28;20185;-73
2022/06/03 09:33:28;;;;;;;2.87;2.40;;;;;;;;;;5056479;28;20287;-73
2022/06/03 09:35:55;;;;;;;4.80;2.43;;;;;;;;;;5073463;28;20304;-72
2022/06/03 09:38:24;;;;;;;3.50;2.57;;;;;;;;;;5072961;28;20614;-72
2022/06/03 09:40:51;;;;;;;5.57;2.70;;;;;;;;;;5065249;28;20264;-72
2022/06/03 09:43:19;;;;;;;3.13;2.47;;;;;;;;;;5070414;28;20724;-72
2022/06/03 09:45:46;;;;;;;3.80;2.50;;;;;;;;;;5067098;28;20189;-73
2022/06/03 09:48:15;;;;;;;4.00;2.70;;;;;;;;;;5062263;28;20196;-72
2022/06/03 09:50:46;;;;;;;3.87;2.60;;;;;;;;;;5070527;28;20190;-72
2022/06/03 09:53:12;;;;;;;2.83;2.40;;;;;;;;;;5063509;28;20193;-73
2022/06/03 09:55:40;;;;;;;4.00;2.77;;;;;;;;;;5064738;28;20213;-72
2022/06/03 09:58:08;;;;;;;3.50;2.50;;;;;;;;;;5063600;28;20264;-72
2022/06/03 10:00:46;;;;;;;2.90;2.60;;;;;;;;;;5065916;28;20173;-72
2022/06/03 10:03:12;;;;;;;3.23;2.70;;;;;;;;;;5071441;28;20208;-73
2022/06/03 10:05:39;;;;;;;2.50;2.30;;;;;;;;;;5072852;28;20275;-71
2022/06/03 10:08:07;;;;;;;2.80;2.60;;;;;;;;;;5071971;28;20182;-73
2022/06/03 10:13:19;;;;;;;2.97;2.57;;;;;;;;;;5069602;28;20688;-72
2022/06/03 10:15:50;;;;;;;3.53;2.90;;;;;;;;;;5068105;28;20284;-71
2022/06/03 10:18:22;;;;;;;2.90;2.60;;;;;;;;;;5064753;28;20183;-73
2022/06/03 10:20:49;;;;;;;3.50;2.60;;;;;;;;;;5062965;28;20214;-74
2022/06/03 10:23:15;;;;;;;2.73;2.40;;;;;;;;;;5068128;28;20183;-74
2022/06/03 10:25:43;;;;;;;2.73;2.30;;;;;;;;;;5072935;28;21142;-73
2022/06/03 10:28:10;;;;;;;2.87;2.53;;;;;;;;;;5065140;28;20236;-76
2022/06/03 10:30:41;;;;;;;2.73;2.50;;;;;;;;;;5071743;28;20188;-77
2022/06/03 10:33:27;;;;;;;2.63;2.43;;;;;;;;;;5070182;28;20226;-76
2022/06/03 10:35:56;;;;;;;2.90;2.60;;;;;;;;;;5052721;28;20574;-74
2022/06/03 10:38:22;;;;;;;4.33;2.60;;;;;;;;;;5060686;28;20178;-74
2022/06/03 10:40:49;;;;;;;5.60;2.80;;;;;;;;;;5072232;28;20522;-76
2022/06/03 10:43:21;;;;;;;4.70;2.60;;;;;;;;;;5070832;28;20179;-75
2022/06/03 10:45:47;;;;;;;4.90;3.00;;;;;;;;;;5064796;28;20184;-76
2022/06/03 10:48:24;;;;;;;3.60;2.50;;;;;;;;;;5071782;28;20185;-75
2022/06/03 10:50:51;;;;;;;2.90;2.57;;;;;;;;;;5053394;28;20186;-73
2022/06/03 11:01:48;;;;;;;3.10;2.37;;;;;;;;;;5063719;28;20192;-73
2022/06/03 11:04:28;;;;;;;2.77;2.57;;;;;;;;;;5071582;28;20221;-74
2022/06/03 11:06:55;;;;;;;3.30;2.57;;;;;;;;;;5070638;28;20584;-77
2022/06/03 11:09:22;;;;;;;4.73;2.60;;;;;;;;;;5067615;28;20184;-72
2022/06/03 11:11:57;;;;;;;3.07;2.13;;;;;;;;;;5051434;28;20261;-74
2022/06/03 11:14:38;;;;;;;2.63;2.33;;;;;;;;;;5061433;28;20672;-73
2022/06/03 11:17:05;;;;;;;3.67;2.30;;;;;;;;;;5048362;28;20192;-73
2022/06/03 11:19:36;;;;;;;3.07;2.60;;;;;;;;;;5061783;28;20186;-73
2022/06/03 11:22:17;;;;;;;4.40;2.43;;;;;;;;;;5063309;28;20185;-73
2022/06/03 11:24:48;;;;;;;3.50;2.37;;;;;;;;;;5051674;28;20212;-72
2022/06/03 11:27:14;;;;;;;4.30;2.40;;;;;;;;;;5056490;28;20184;-72
2022/06/03 11:29:42;;;;;;;2.60;2.40;;;;;;;;;;5052845;28;20274;-72
2022/06/03 11:32:09;;;;;;;2.47;2.30;;;;;;;;;;5059408;28;20653;-72
2022/06/03 11:34:42;;;;;;;3.30;2.73;;;;;;;;;;5072005;28;20201;-72
2022/06/03 11:37:16;;;;;;;2.87;2.30;;;;;;;;;;5063444;28;20182;-72
2022/06/03 11:39:49;;;;;;;3.23;2.50;;;;;;;;;;5066881;28;20589;-71
2022/06/03 11:42:21;;;;;;;3.00;2.30;;;;;;;;;;5066481;28;20212;-73
2022/06/03 11:44:57;;;;;;;2.53;2.33;;;;;;;;;;5068954;28;20287;-72
2022/06/03 11:47:26;;;;;;;3.07;2.70;;;;;;;;;;5071534;28;20184;-71
2022/06/03 11:49:53;;;;;;;3.50;2.33;;;;;;;;;;5066616;28;20753;-72
2022/06/03 11:52:21;;;;;;;3.13;2.30;;;;;;;;;;5070631;28;20556;-70
2022/06/03 11:54:47;;;;;;;2.20;2.10;;;;;;;;;;5075256;28;20230;-71
2022/06/03 11:57:14;;;;;;;4.63;2.80;;;;;;;;;;5072140;28;20181;-72
2022/06/03 11:59:53;;;;;;;3.57;2.80;;;;;;;;;;5067891;28;20591;-74
2022/06/03 12:02:26;;;;;;;3.20;2.77;;;;;;;;;;5071601;28;20215;-72
2022/06/03 12:05:03;;;;;;;2.87;2.63;;;;;;;;;;5077405;28;20425;-72
2022/06/03 12:07:34;;;;;;;4.37;2.80;;;;;;;;;;5070287;28;20195;-72
2022/06/03 12:10:10;;;;;;;4.40;2.60;;;;;;;;;;5068798;28;20590;-73
2022/06/03 12:15:31;;;;;;;4.17;2.53;;;;;;;;;;5066232;28;20215;-72
2022/06/03 12:18:06;;;;;;;4.53;2.60;;;;;;;;;;5063178;28;20633;-72
2022/06/03 12:20:32;;;;;;;3.60;2.80;;;;;;;;;;5064023;28;20179;-72
2022/06/03 12:23:18;;;;;;;5.13;2.50;;;;;;;;;;5060582;28;20178;-72
2022/06/03 12:25:45;;;;;;;2.93;2.50;;;;;;;;;;5053731;28;20181;-73
2022/06/03 12:28:29;;;;;;;3.03;2.83;;;;;;;;;;5057163;28;20673;-72
2022/06/03 12:30:56;;;;;;;2.70;2.33;;;;;;;;;;5061637;28;20188;-72
2022/06/03 12:33:27;;;;;;;2.30;2.10;;;;;;;;;;5059103;28;20205;-74
2022/06/03 12:35:55;;;;;;;3.67;2.40;;;;;;;;;;5065351;28;20204;-72
2022/06/03 12:38:22;;;;;;;2.70;2.50;;;;;;;;;;5061001;28;20257;-73
2022/06/03 12:40:49;;;;;;;3.00;2.70;;;;;;;;;;5061181;28;20218;-73
2022/06/03 12:43:24;;;;;;;3.93;2.40;;;;;;;;;;5060398;28;20559;-74
2022/06/03 12:45:58;;;;;;;3.80;2.70;;;;;;;;;;5058522;28;20282;-74
2022/06/03 12:48:35;;;;;;;3.33;2.60;;;;;;;;;;5064748;28;20214;-71
2022/06/03 12:51:28;;;;;;;4.47;2.90;;;;;;;;;;5073596;28;20181;-71
2022/06/03 12:53:59;;;;;;;3.80;2.80;;;;;;;;;;5077395;28;20578;-71
2022/06/03 12:56:27;;;;;;;3.00;2.47;;;;;;;;;;5056251;28;20201;-72
2022/06/03 12:58:54;;;;;;;3.30;3.00;;;;;;;;;;5070507;28;20209;-72
2022/06/03 13:01:36;;;;;;;3.00;2.70;;;;;;;;;;5063706;28;20177;-72
2022/06/03 13:04:21;;;;;;;4.63;2.70;;;;;;;;;;5067289;28;20216;-71
2022/06/03 13:07:06;;;;;;;4.60;2.80;;;;;;;;;;5072995;28;20185;-71
2022/06/03 13:09:49;;;;;;;3.70;2.93;;;;;;;;;;5075397;28;20184;-71
2022/06/03 13:12:16;;;;;;;3.63;2.80;;;;;;;;;;5077356;28;20213;-71
2022/06/03 13:14:43;;;;;;;3.10;2.70;;;;;;;;;;5074797;28;20209;-71
2022/06/03 13:17:30;;;;;;;3.20;2.90;;;;;;;;;;5077034;28;20239;-71
2022/06/03 13:19:58;;;;;;;2.90;2.70;;;;;;;;;;5075708;28;20193;-71
2022/06/03 13:22:28;;;;;;;3.73;2.73;;;;;;;;;;5069415;28;20174;-71
2022/06/03 13:25:15;;;;;;;4.83;2.90;;;;;;;;;;5074339;28;20573;-71
2022/06/03 13:28:01;;;;;;;5.53;2.80;;;;;;;;;;5065614;28;20197;-71
2022/06/03 13:30:34;;;;;;;3.00;2.80;;;;;;;;;;5066872;28;20192;-71
2022/06/03 13:33:12;;;;;;;3.83;2.87;;;;;;;;;;5075406;28;20204;-71
2022/06/03 13:36:02;;;;;;;3.00;2.80;;;;;;;;;;5073832;28;20212;-71
2022/06/03 13:38:45;;;;;;;3.73;3.13;;;;;;;;;;5075746;28;20192;-72
2022/06/03 13:44:07;;;;;;;3.43;2.97;;;;;;;;;;5075191;28;20207;-71
2022/06/03 13:46:35;;;;;;;3.40;3.10;;;;;;;;;;5062805;28;20714;-71
2022/06/03 13:49:06;;;;;;;3.93;2.90;;;;;;;;;;5051587;28;20190;-71
2022/06/03 13:51:47;;;;;;;3.10;2.90;;;;;;;;;;5063493;28;20670;-71
2022/06/03 13:54:17;;;;;;;4.80;3.00;;;;;;;;;;5067342;28;20232;-72
2022/06/03 13:56:54;;;;;;;4.20;2.90;;;;;;;;;;5067611;28;20588;-70
2022/06/03 13:59:21;;;;;;;5.30;3.10;;;;;;;;;;5070551;28;20184;-71
2022/06/03 14:01:52;;;;;;;3.30;3.00;;;;;;;;;;5067016;28;20732;-71
2022/06/03 14:04:20;;;;;;;4.13;3.17;;;;;;;;;;5072903;28;20566;-71
2022/06/03 14:06:56;;;;;;;4.73;2.97;;;;;;;;;;5072466;28;20646;-70
2022/06/03 14:09:27;;;;;;;4.97;3.10;;;;;;;;;;5062343;28;20306;-71
2022/06/03 14:12:08;;;;;;;7.47;3.10;;;;;;;;;;5071275;28;20193;-71
2022/06/03 14:14:55;;;;;;;3.93;3.40;;;;;;;;;;5071894;28;20249;-71
2022/06/03 14:17:40;;;;;;;6.93;2.90;;;;;;;;;;5067353;28;20653;-72
2022/06/03 14:20:14;;;;;;;4.77;2.97;;;;;;;;;;5062146;28;20178;-72
2022/06/03 14:22:55;;;;;;;6.97;3.30;;;;;;;;;;5057374;28;20273;-72
2022/06/03 14:25:28;;;;;;;5.67;3.13;;;;;;;;;;5071115;28;20291;-72
2022/06/03 14:27:55;;;;;;;4.40;3.37;;;;;;;;;;5065704;28;20200;-72
2022/06/03 14:30:38;;;;;;;4.30;3.67;;;;;;;;;;5070058;28;20185;-72
2022/06/03 14:33:05;;;;;;;3.50;3.20;;;;;;;;;;5070969;28;20254;-72
2022/06/03 14:35:34;;;;;;;5.17;3.90;;;;;;;;;;5066939;28;20312;-73
2022/06/03 14:38:06;;;;;;;4.10;3.80;;;;;;;;;;5070743;28;20182;-72
2022/06/03 14:40:35;;;;;;;5.43;4.30;;;;;;;;;;5071194;28;20189;-71
2022/06/03 14:43:02;;;;;;;5.43;4.20;;;;;;;;;;5068425;28;20604;-72
2022/06/03 14:45:32;;;;;;;5.37;4.50;;;;;;;;;;5071167;28;20728;-71
2022/06/03 14:48:00;;;;;;;4.33;3.93;;;;;;;;;;5058336;28;20182;-71
2022/06/03 14:50:38;;;;;;;4.47;4.00;;;;;;;;;;5072056;28;20231;-72
2022/06/03 14:53:20;;;;;;;4.00;3.60;;;;;;;;;;5058836;28;20199;-71
2022/06/03 14:55:50;;;;;;;4.33;3.50;;;;;;;;;;5071839;28;20544;-71
2022/06/03 14:58:17;;;;;;;6.40;3.77;;;;;;;;;;5064275;28;20658;-72
2022/06/03 15:00:43;;;;;;;4.00;3.60;;;;;;;;;;5065000;28;20728;-71
2022/06/03 15:03:18;;;;;;;4.03;3.30;;;;;;;;;;5071056;28;20182;-72
2022/06/03 15:05:53;;;;;;;4.93;3.53;;;;;;;;;;5059350;28;20180;-72
2022/06/03 15:08:22;;;;;;;6.23;4.20;;;;;;;;;;5060251;28;20189;-72
2022/06/03 15:11:14;;;;;;;5.70;5.07;;;;;;;;;;5053380;28;20713;-71
2022/06/03 15:13:47;;;;;;;5.80;5.17;;;;;;;;;;5048953;28;20210;-72
2022/06/03 15:16:14;;;;;;;5.73;5.10;;;;;;;;;;5071256;28;20221;-72
2022/06/03 15:18:41;;;;;;;5.90;5.37;;;;;;;;;;5068548;28;20178;-71
2022/06/03 15:21:22;;;;;;;5.73;5.23;;;;;;;;;;5070180;28;20256;-71
2022/06/03 15:23:56;;;;;;;5.40;4.90;;;;;;;;;;5026677;28;20204;-72
2022/06/03 15:26:25;;;;;;;6.20;5.60;;;;;;;;;;5062946;28;20189;-72
2022/06/03 15:28:55;;;;;;;7.07;5.10;;;;;;;;;;5060545;28;20187;-72
2022/06/03 15:31:23;;;;;;;5.87;5.37;;;;;;;;;;5065477;28;20193;-74
2022/06/03 15:33:54;;;;;;;6.10;5.60;;;;;;;;;;5066131;28;20205;-72
2022/06/03 15:36:22;;;;;;;6.10;5.50;;;;;;;;;;5058026;28;20718;-72
2022/06/03 15:38:50;;;;;;;6.70;5.60;;;;;;;;;;5070919;28;20162;-72
2022/06/03 15:41:21;;;;;;;6.40;5.53;;;;;;;;;;5070681;28;20213;-72
2022/06/03 15:43:48;;;;;;;5.40;4.90;;;;;;;;;;5061985;28;20570;-73
2022/06/03 15:46:31;;;;;;;6.33;5.70;;;;;;;;;;5066808;28;20668;-72
2022/06/03 15:49:02;;;;;;;5.33;4.80;;;;;;;;;;5060001;28;20247;-72
2022/06/03 15:51:28;;;;;;;5.30;4.83;;;;;;;;;;5062205;28;20186;-73
2022/06/03 15:53:56;;;;;;;5.97;5.40;;;;;;;;;;5049757;28;20222;-71